• Join FlightAware (Why Join?)
  • Login
  • US Flag 
06:30AM EST


 

Airport Tracker/Info


-or-


 

Live Flight TrackerFlight Track Log ✈ N776MA ✈ 26-Mar-2014 ✈ KFNT - KMTN

Flight Track Log - Related Links

Times and Time Zones

All times are in EDT time to prevent confusion due to time zone crossing. See the N776MA flight status page for this flight to view local times or setup timezone preferences in your user account.

Time Position Orientation Groundspeed Altitude Reporting Facility
EDT Latitude Longitude Course Direction KTS MPH feet Rate Location/Type
12:30PM 42.9433 -83.8372 128° Southeast 238 274 3,800  Level Cleveland Center
12:31PM 42.8961 -83.7772 137° Southeast 274 315 7,200 2,976 Climbing Cleveland Center
12:32PM 42.9219 -83.6772 71° East 273 314 9,900 1,366 Climbing Cleveland Center
12:33PM 42.9511 -83.5750 69° East 327 376 10,000 823 Climbing Cleveland Center
12:35PM 42.9908 -83.4425 68° East 379 436 11,600 1,984 Climbing Cleveland Center
12:36PM 42.6267 -82.9816 128° Southeast  Level Estimated
12:36PM 43.0342 -83.2839 69° East 372 428 14,100  Level Cleveland Center
12:37PM 43.0067 -83.1494 106° East 408 470 16,100 1,805 Climbing Cleveland Center
12:38PM 42.9214 -83.0269 134° Southeast 438 504 17,800 1,839 Climbing Cleveland Center
12:39PM 42.8242 -82.8933 135° Southeast 488 562 19,900 2,129 Climbing Cleveland Center
12:40PM 42.7214 -82.7542 135° Southeast 510 587 22,200 2,323 Climbing Cleveland Center
12:41PM 42.6169 -82.6119 135° Southeast 525 604 24,700 2,390 Climbing Cleveland Center
12:42PM 42.5100 -82.4681 135° Southeast 536 617 27,100 2,146 Climbing Cleveland Center
12:43PM 42.3983 -82.3189 135° Southeast 554 638 29,100 1,403 Climbing Cleveland Center
12:44PM 42.2603 -82.1353 135° Southeast 579 666 30,000 581 Climbing Cleveland Center
12:45PM 42.1453 -81.9806 135° Southeast 582 670 30,300 1,161 Climbing Cleveland Center
12:46PM 42.0281 -81.8264 136° Southeast 586 674 32,400 2,806 Climbing Cleveland Center
12:47PM 41.9122 -81.6753 136° Southeast 585 673 36,100 3,024 Climbing Cleveland Center
12:48PM 41.8025 -81.5364 137° Southeast 549 632 38,600 1,805 Climbing Cleveland Center
12:49PM 41.6822 -81.3836 136° Southeast 536 617 39,800 968 Climbing Cleveland Center
12:50PM 41.5731 -81.2511 138° Southeast 534 615 40,600 581 Climbing Cleveland Center
12:51PM 41.4411 -81.1619 153° Southeast 534 615 41,000 194 Climbing Cleveland Center
12:52PM 41.3106 -81.0667 151° Southeast 534 615 41,000 -49 Level Cleveland Center
12:53PM 41.1789 -80.9725 152° Southeast 538 619 40,900  Descending Cleveland Center
12:54PM 41.0247 -80.8592 151° Southeast 531 611 41,000 97 Climbing Cleveland Center
12:55PM 40.8931 -80.7656 152° Southeast 534 615 41,100 48 Climbing Cleveland Center
12:56PM 40.7631 -80.6728 152° Southeast 534 615 41,100 -49 Level Cleveland Center
12:57PM 40.6328 -80.5800 152° Southeast 534 615 41,000 -49 Descending Cleveland Center
12:58PM 40.5036 -80.4881 152° Southeast 534 615 41,000  Level Cleveland Center
12:59PM 40.3750 -80.3986 152° Southeast 534 615 41,000 -145 Level Cleveland Center
01:00PM 40.2233 -80.2931 152° Southeast 530 610 40,700 -871 Descending Cleveland Center
01:01PM 40.0936 -80.2039 152° Southeast 530 610 39,200 -1,512 Descending Cleveland Center
01:02PM 39.9614 -80.1117 152° Southeast 537 618 37,600 -2,049 Descending Cleveland Center
01:03PM 39.8486 -79.9856 139° Southeast 544 626 35,000 -2,371 Descending Cleveland Center
01:04PM 39.8025 -79.8047 108° East 535 616 32,700 -2,274 Descending Cleveland Center
01:05PM 39.7653 -79.5867 102° East 521 600 30,300 -2,068 Descending Cleveland Center
01:07PM 39.6997 -79.2542 104° East 530 610 26,600 -1,849 Descending Washington Center
01:08PM 39.6592 -79.0742 106° East 530 610 25,000 -814 Descending Washington Center
01:09PM 39.6164 -78.8969 107° East 519 597 25,000 -1,190 Level Washington Center
01:10PM 39.5792 -78.7228 105° East 513 590 22,600 -2,521 Descending Washington Center
01:11PM 39.5436 -78.5625 106° East 493 567 20,000 -2,380 Descending Washington Center
01:12PM 39.5081 -78.4025 106° East 471 542 17,800 -2,164 Descending Washington Center
01:13PM 39.4742 -78.2450 106° East 457 526 15,600 -1,412 Descending Washington Center
01:14PM 39.4397 -78.0986 107° East 439 505 15,000 -504 Descending Washington Center
01:15PM 39.4092 -77.9581 106° East 422 486 14,600 -992 Descending Washington Center
01:16PM 39.3908 -77.8231 100° East 401 461 13,000 -1,525 Descending Washington Center
01:17PM 39.4036 -77.6972 82° East 363 418 11,500 -992 Descending Washington Center
01:18PM 39.4203 -77.5714 80° East 358 412 11,000 -256 Descending Washington Center
01:19PM 39.4347 -77.4483 81° East 353 406 11,000 50 Level Washington Center
01:20PM 39.4514 -77.3169 81° East 342 394 11,100  Climbing Washington Center
01:21PM 39.4656 -77.1992 81° East 337 388 11,000 -838 Descending Washington Center
01:23PM 39.4500 -77.0500 98° East 328 377 9,200 -1,500 Descending Potomac TRACON
01:24PM 39.4333 -76.9333 100° East 303 349 7,600 -1,587 Descending Potomac TRACON
01:25PM 39.4167 -76.8333 102° East 286 329 6,000 -1,537 Descending Potomac TRACON
01:26PM 39.4000 -76.7500 104° East 276 318 4,500 -991 Descending Potomac TRACON
01:27PM 39.3833 -76.6500 102° East 266 306 4,100 -198 Descending Potomac TRACON
01:28PM 39.3667 -76.5667 104° East 237 273 4,100  Level Potomac TRACON
01:29PM 39.3000 -76.5167 150° Southeast 235 270 4,100 -158 Level Potomac TRACON
01:30PM 39.2500 -76.4833 153° Southeast 221 254 3,800 -545 Descending Potomac TRACON
01:31PM 39.2167 -76.4167 123° Southeast 219 252 3,000 -425 Descending Potomac TRACON
01:32PM 39.2000 -76.3500 108° East 206 237 2,900 -400 Descending Potomac TRACON
01:33PM 39.2167 -76.3000 67° East 182 209 2,200 -632 Descending Potomac TRACON
01:34PM 39.2500 -76.3167 339° North 163 188 1,700 -600 Descending Potomac TRACON
01:35PM 39.2833 -76.3667 311° West 118 136 1,000 -571 Descending Potomac TRACON
01:36PM 39.3000 -76.3833 322° Northwest 128 147 500 -500 Descending Potomac TRACON
01:38PM 39.3167 -76.4000 342° North  Level FlightAware Approximate
01:45PM 39.3257 -76.4138 342° North  Level Estimated
01:46PM 39.3257 -76.4138 159° South  Level Estimated